sensor_id;sensor_type;location;lat;lon;timestamp;P1;durP1;ratioP1;P2;durP2;ratioP2
79646;SDS011;69119;41.718;21.786;2023-06-26T00:02:23;17.27;;;14.27;;
79646;SDS011;69119;41.718;21.786;2023-06-26T00:04:49;18.88;;;14.75;;
79646;SDS011;69119;41.718;21.786;2023-06-26T00:07:19;20.40;;;15.23;;
79646;SDS011;69119;41.718;21.786;2023-06-26T00:09:45;21.25;;;16.25;;
79646;SDS011;69119;41.718;21.786;2023-06-26T00:12:11;19.45;;;15.75;;
79646;SDS011;69119;41.718;21.786;2023-06-26T00:14:37;20.83;;;16.80;;
79646;SDS011;69119;41.718;21.786;2023-06-26T00:17:03;19.90;;;16.80;;
79646;SDS011;69119;41.718;21.786;2023-06-26T00:19:29;18.75;;;13.27;;
79646;SDS011;69119;41.718;21.786;2023-06-26T00:21:55;19.05;;;14.73;;
79646;SDS011;69119;41.718;21.786;2023-06-26T00:26:47;19.58;;;14.40;;
79646;SDS011;69119;41.718;21.786;2023-06-26T00:29:14;18.20;;;13.30;;
79646;SDS011;69119;41.718;21.786;2023-06-26T00:31:40;18.50;;;14.88;;
79646;SDS011;69119;41.718;21.786;2023-06-26T00:34:06;17.05;;;11.85;;
79646;SDS011;69119;41.718;21.786;2023-06-26T00:38:59;20.25;;;13.55;;
79646;SDS011;69119;41.718;21.786;2023-06-26T00:43:50;17.10;;;13.70;;
79646;SDS011;69119;41.718;21.786;2023-06-26T00:46:18;20.35;;;15.00;;
79646;SDS011;69119;41.718;21.786;2023-06-26T00:48:44;18.95;;;14.52;;
79646;SDS011;69119;41.718;21.786;2023-06-26T00:51:11;17.60;;;13.32;;
79646;SDS011;69119;41.718;21.786;2023-06-26T00:56:03;18.92;;;12.60;;
79646;SDS011;69119;41.718;21.786;2023-06-26T00:58:29;18.70;;;14.77;;
79646;SDS011;69119;41.718;21.786;2023-06-26T01:00:55;17.92;;;13.68;;
79646;SDS011;69119;41.718;21.786;2023-06-26T01:03:22;18.73;;;14.48;;
79646;SDS011;69119;41.718;21.786;2023-06-26T01:05:48;17.50;;;13.95;;
79646;SDS011;69119;41.718;21.786;2023-06-26T01:08:16;18.52;;;14.23;;
79646;SDS011;69119;41.718;21.786;2023-06-26T01:10:43;16.83;;;11.75;;
79646;SDS011;69119;41.718;21.786;2023-06-26T01:13:10;18.10;;;14.13;;
79646;SDS011;69119;41.718;21.786;2023-06-26T01:15:37;17.00;;;12.95;;
79646;SDS011;69119;41.718;21.786;2023-06-26T01:20:30;18.98;;;14.35;;
79646;SDS011;69119;41.718;21.786;2023-06-26T01:23:03;17.13;;;11.25;;
79646;SDS011;69119;41.718;21.786;2023-06-26T01:25:33;19.13;;;13.55;;
79646;SDS011;69119;41.718;21.786;2023-06-26T01:30:30;18.35;;;12.57;;
79646;SDS011;69119;41.718;21.786;2023-06-26T01:32:57;17.70;;;12.40;;
79646;SDS011;69119;41.718;21.786;2023-06-26T01:35:24;18.95;;;14.18;;
79646;SDS011;69119;41.718;21.786;2023-06-26T01:37:50;18.63;;;12.07;;
79646;SDS011;69119;41.718;21.786;2023-06-26T01:40:16;16.77;;;12.48;;
79646;SDS011;69119;41.718;21.786;2023-06-26T01:42:42;18.05;;;13.43;;
79646;SDS011;69119;41.718;21.786;2023-06-26T01:45:14;20.55;;;14.63;;
79646;SDS011;69119;41.718;21.786;2023-06-26T01:47:44;21.30;;;15.82;;
79646;SDS011;69119;41.718;21.786;2023-06-26T01:50:12;18.90;;;14.23;;
79646;SDS011;69119;41.718;21.786;2023-06-26T01:52:46;19.70;;;14.40;;
79646;SDS011;69119;41.718;21.786;2023-06-26T01:55:17;19.33;;;14.82;;
79646;SDS011;69119;41.718;21.786;2023-06-26T01:57:45;21.45;;;15.98;;
79646;SDS011;69119;41.718;21.786;2023-06-26T02:00:13;22.10;;;15.98;;
79646;SDS011;69119;41.718;21.786;2023-06-26T02:02:42;19.45;;;15.35;;
79646;SDS011;69119;41.718;21.786;2023-06-26T02:05:08;20.73;;;15.93;;
79646;SDS011;69119;41.718;21.786;2023-06-26T02:07:34;21.33;;;15.68;;
79646;SDS011;69119;41.718;21.786;2023-06-26T02:10:00;19.35;;;15.80;;
79646;SDS011;69119;41.718;21.786;2023-06-26T02:12:26;20.10;;;15.55;;
79646;SDS011;69119;41.718;21.786;2023-06-26T02:14:52;22.15;;;15.75;;
79646;SDS011;69119;41.718;21.786;2023-06-26T02:17:18;22.92;;;14.98;;
79646;SDS011;69119;41.718;21.786;2023-06-26T02:19:44;20.98;;;17.83;;
79646;SDS011;69119;41.718;21.786;2023-06-26T02:22:14;21.95;;;17.65;;
79646;SDS011;69119;41.718;21.786;2023-06-26T02:24:40;20.63;;;17.17;;
79646;SDS011;69119;41.718;21.786;2023-06-26T02:27:06;21.85;;;16.27;;
79646;SDS011;69119;41.718;21.786;2023-06-26T02:29:32;21.35;;;17.75;;
79646;SDS011;69119;41.718;21.786;2023-06-26T02:31:58;20.67;;;16.75;;
79646;SDS011;69119;41.718;21.786;2023-06-26T02:34:24;22.58;;;16.58;;
79646;SDS011;69119;41.718;21.786;2023-06-26T02:36:50;23.58;;;17.08;;
79646;SDS011;69119;41.718;21.786;2023-06-26T02:39:19;21.65;;;16.73;;
79646;SDS011;69119;41.718;21.786;2023-06-26T02:41:45;22.52;;;17.48;;
79646;SDS011;69119;41.718;21.786;2023-06-26T02:44:12;20.50;;;16.80;;
79646;SDS011;69119;41.718;21.786;2023-06-26T02:46:39;21.65;;;16.20;;
79646;SDS011;69119;41.718;21.786;2023-06-26T02:49:05;22.73;;;17.48;;
79646;SDS011;69119;41.718;21.786;2023-06-26T02:51:32;23.10;;;17.77;;
79646;SDS011;69119;41.718;21.786;2023-06-26T02:53:58;23.52;;;18.88;;
79646;SDS011;69119;41.718;21.786;2023-06-26T02:56:24;22.83;;;18.58;;
79646;SDS011;69119;41.718;21.786;2023-06-26T02:58:56;24.20;;;18.55;;
79646;SDS011;69119;41.718;21.786;2023-06-26T03:01:22;22.90;;;16.80;;
79646;SDS011;69119;41.718;21.786;2023-06-26T03:03:49;23.15;;;18.50;;
79646;SDS011;69119;41.718;21.786;2023-06-26T03:06:15;22.85;;;18.25;;
79646;SDS011;69119;41.718;21.786;2023-06-26T03:08:41;22.45;;;18.80;;
79646;SDS011;69119;41.718;21.786;2023-06-26T03:13:36;22.33;;;17.77;;
79646;SDS011;69119;41.718;21.786;2023-06-26T03:16:02;25.17;;;18.40;;
79646;SDS011;69119;41.718;21.786;2023-06-26T03:18:28;23.60;;;18.65;;
79646;SDS011;69119;41.718;21.786;2023-06-26T03:23:21;23.33;;;19.23;;
79646;SDS011;69119;41.718;21.786;2023-06-26T03:25:47;24.48;;;17.70;;
79646;SDS011;69119;41.718;21.786;2023-06-26T03:28:13;25.10;;;17.83;;
79646;SDS011;69119;41.718;21.786;2023-06-26T03:30:39;24.00;;;19.55;;
79646;SDS011;69119;41.718;21.786;2023-06-26T03:33:05;25.23;;;18.42;;
79646;SDS011;69119;41.718;21.786;2023-06-26T03:35:31;27.02;;;19.73;;
79646;SDS011;69119;41.718;21.786;2023-06-26T03:37:58;24.85;;;18.27;;
79646;SDS011;69119;41.718;21.786;2023-06-26T03:40:24;24.13;;;19.35;;
79646;SDS011;69119;41.718;21.786;2023-06-26T03:42:50;24.10;;;19.25;;
79646;SDS011;69119;41.718;21.786;2023-06-26T03:45:16;25.52;;;19.27;;
79646;SDS011;69119;41.718;21.786;2023-06-26T03:47:43;24.83;;;18.95;;
79646;SDS011;69119;41.718;21.786;2023-06-26T03:50:12;22.88;;;17.83;;
79646;SDS011;69119;41.718;21.786;2023-06-26T03:52:38;22.05;;;17.98;;
79646;SDS011;69119;41.718;21.786;2023-06-26T03:55:04;22.52;;;18.67;;
79646;SDS011;69119;41.718;21.786;2023-06-26T03:57:30;24.30;;;18.95;;
79646;SDS011;69119;41.718;21.786;2023-06-26T03:59:56;24.52;;;19.08;;
79646;SDS011;69119;41.718;21.786;2023-06-26T04:02:22;22.85;;;18.60;;
79646;SDS011;69119;41.718;21.786;2023-06-26T04:04:49;22.50;;;18.27;;
79646;SDS011;69119;41.718;21.786;2023-06-26T04:07:15;24.10;;;18.10;;
79646;SDS011;69119;41.718;21.786;2023-06-26T04:09:41;23.08;;;18.85;;
79646;SDS011;69119;41.718;21.786;2023-06-26T04:12:07;23.05;;;18.88;;
79646;SDS011;69119;41.718;21.786;2023-06-26T04:14:33;22.27;;;18.60;;
79646;SDS011;69119;41.718;21.786;2023-06-26T04:16:59;23.48;;;18.55;;
79646;SDS011;69119;41.718;21.786;2023-06-26T04:19:28;22.30;;;18.20;;
79646;SDS011;69119;41.718;21.786;2023-06-26T04:21:54;25.45;;;18.95;;
79646;SDS011;69119;41.718;21.786;2023-06-26T04:24:20;23.15;;;18.20;;
79646;SDS011;69119;41.718;21.786;2023-06-26T04:26:46;22.35;;;19.30;;
79646;SDS011;69119;41.718;21.786;2023-06-26T04:29:12;23.40;;;17.17;;
79646;SDS011;69119;41.718;21.786;2023-06-26T04:34:04;26.52;;;18.85;;
79646;SDS011;69119;41.718;21.786;2023-06-26T04:36:30;20.35;;;16.23;;
79646;SDS011;69119;41.718;21.786;2023-06-26T04:38:58;23.65;;;19.20;;
79646;SDS011;69119;41.718;21.786;2023-06-26T04:43:50;22.33;;;18.45;;
79646;SDS011;69119;41.718;21.786;2023-06-26T04:46:16;21.33;;;13.45;;
79646;SDS011;69119;41.718;21.786;2023-06-26T04:48:42;21.20;;;15.88;;
79646;SDS011;69119;41.718;21.786;2023-06-26T04:51:09;21.15;;;17.83;;
79646;SDS011;69119;41.718;21.786;2023-06-26T04:56:02;21.88;;;16.38;;
79646;SDS011;69119;41.718;21.786;2023-06-26T04:58:28;21.23;;;17.52;;
79646;SDS011;69119;41.718;21.786;2023-06-26T05:00:54;21.27;;;18.42;;
79646;SDS011;69119;41.718;21.786;2023-06-26T05:03:20;21.45;;;18.05;;
79646;SDS011;69119;41.718;21.786;2023-06-26T05:05:47;18.88;;;15.48;;
79646;SDS011;69119;41.718;21.786;2023-06-26T05:08:14;18.88;;;15.43;;
79646;SDS011;69119;41.718;21.786;2023-06-26T05:10:40;19.15;;;16.17;;
79646;SDS011;69119;41.718;21.786;2023-06-26T05:13:06;21.92;;;18.13;;
79646;SDS011;69119;41.718;21.786;2023-06-26T05:15:32;20.88;;;15.70;;
79646;SDS011;69119;41.718;21.786;2023-06-26T05:20:24;21.63;;;18.58;;
79646;SDS011;69119;41.718;21.786;2023-06-26T05:25:16;20.63;;;15.65;;
79646;SDS011;69119;41.718;21.786;2023-06-26T05:27:46;19.90;;;17.55;;
79646;SDS011;69119;41.718;21.786;2023-06-26T05:30:12;19.83;;;14.63;;
79646;SDS011;69119;41.718;21.786;2023-06-26T05:32:39;19.92;;;15.98;;
79646;SDS011;69119;41.718;21.786;2023-06-26T05:35:06;22.17;;;17.25;;
79646;SDS011;69119;41.718;21.786;2023-06-26T05:37:33;20.23;;;17.80;;
79646;SDS011;69119;41.718;21.786;2023-06-26T05:39:59;21.38;;;16.40;;
79646;SDS011;69119;41.718;21.786;2023-06-26T05:42:28;20.75;;;17.45;;
79646;SDS011;69119;41.718;21.786;2023-06-26T05:44:55;18.02;;;15.57;;
79646;SDS011;69119;41.718;21.786;2023-06-26T05:47:21;15.15;;;11.02;;
79646;SDS011;69119;41.718;21.786;2023-06-26T05:49:47;18.77;;;15.45;;
79646;SDS011;69119;41.718;21.786;2023-06-26T05:52:13;17.50;;;13.73;;
79646;SDS011;69119;41.718;21.786;2023-06-26T05:54:40;17.40;;;13.70;;
79646;SDS011;69119;41.718;21.786;2023-06-26T05:57:06;21.33;;;15.93;;
79646;SDS011;69119;41.718;21.786;2023-06-26T05:59:32;17.63;;;15.52;;
79646;SDS011;69119;41.718;21.786;2023-06-26T06:01:58;19.30;;;16.58;;
79646;SDS011;69119;41.718;21.786;2023-06-26T06:04:24;18.60;;;15.68;;
79646;SDS011;69119;41.718;21.786;2023-06-26T06:06:58;20.00;;;16.02;;
79646;SDS011;69119;41.718;21.786;2023-06-26T06:09:24;17.15;;;13.73;;
79646;SDS011;69119;41.718;21.786;2023-06-26T06:11:50;16.58;;;13.63;;
79646;SDS011;69119;41.718;21.786;2023-06-26T06:14:16;19.38;;;16.70;;
79646;SDS011;69119;41.718;21.786;2023-06-26T06:16:42;16.60;;;13.13;;
79646;SDS011;69119;41.718;21.786;2023-06-26T06:19:08;17.50;;;13.93;;
79646;SDS011;69119;41.718;21.786;2023-06-26T06:21:36;18.45;;;14.95;;
79646;SDS011;69119;41.718;21.786;2023-06-26T06:24:02;20.42;;;18.30;;
79646;SDS011;69119;41.718;21.786;2023-06-26T06:26:28;20.00;;;15.63;;
79646;SDS011;69119;41.718;21.786;2023-06-26T06:28:54;18.23;;;13.88;;
79646;SDS011;69119;41.718;21.786;2023-06-26T06:31:20;16.63;;;12.13;;
79646;SDS011;69119;41.718;21.786;2023-06-26T06:33:46;19.30;;;14.73;;
79646;SDS011;69119;41.718;21.786;2023-06-26T06:36:12;16.02;;;10.93;;
79646;SDS011;69119;41.718;21.786;2023-06-26T06:38:38;18.15;;;15.65;;
79646;SDS011;69119;41.718;21.786;2023-06-26T06:41:08;17.73;;;15.18;;
79646;SDS011;69119;41.718;21.786;2023-06-26T06:43:34;15.60;;;13.90;;
79646;SDS011;69119;41.718;21.786;2023-06-26T06:46:01;14.90;;;11.30;;
79646;SDS011;69119;41.718;21.786;2023-06-26T06:48:27;16.40;;;12.70;;
79646;SDS011;69119;41.718;21.786;2023-06-26T06:50:53;17.13;;;12.70;;
79646;SDS011;69119;41.718;21.786;2023-06-26T06:53:19;17.30;;;11.70;;
79646;SDS011;69119;41.718;21.786;2023-06-26T06:55:46;16.17;;;12.68;;
79646;SDS011;69119;41.718;21.786;2023-06-26T06:58:12;16.00;;;14.02;;
79646;SDS011;69119;41.718;21.786;2023-06-26T07:00:38;16.45;;;14.00;;
79646;SDS011;69119;41.718;21.786;2023-06-26T07:03:04;17.05;;;15.25;;
79646;SDS011;69119;41.718;21.786;2023-06-26T07:05:30;16.80;;;11.80;;
79646;SDS011;69119;41.718;21.786;2023-06-26T07:07:56;16.90;;;14.07;;
79646;SDS011;69119;41.718;21.786;2023-06-26T07:10:22;18.63;;;16.58;;
79646;SDS011;69119;41.718;21.786;2023-06-26T07:12:48;17.52;;;15.55;;
79646;SDS011;69119;41.718;21.786;2023-06-26T07:15:14;19.20;;;17.25;;
79646;SDS011;69119;41.718;21.786;2023-06-26T07:17:40;18.42;;;15.35;;
79646;SDS011;69119;41.718;21.786;2023-06-26T07:20:06;20.08;;;17.08;;
79646;SDS011;69119;41.718;21.786;2023-06-26T07:22:33;18.17;;;15.38;;
79646;SDS011;69119;41.718;21.786;2023-06-26T07:24:59;19.75;;;16.00;;
79646;SDS011;69119;41.718;21.786;2023-06-26T07:27:25;13.02;;;8.30;;
79646;SDS011;69119;41.718;21.786;2023-06-26T07:29:52;18.55;;;16.42;;
79646;SDS011;69119;41.718;21.786;2023-06-26T07:32:18;17.85;;;13.25;;
79646;SDS011;69119;41.718;21.786;2023-06-26T07:34:44;19.83;;;15.93;;
79646;SDS011;69119;41.718;21.786;2023-06-26T07:37:10;13.77;;;10.18;;
79646;SDS011;69119;41.718;21.786;2023-06-26T07:39:36;18.48;;;16.40;;
79646;SDS011;69119;41.718;21.786;2023-06-26T07:42:02;13.93;;;10.68;;
79646;SDS011;69119;41.718;21.786;2023-06-26T07:44:28;17.20;;;13.43;;
79646;SDS011;69119;41.718;21.786;2023-06-26T07:47:14;13.75;;;9.70;;
79646;SDS011;69119;41.718;21.786;2023-06-26T07:49:40;12.60;;;9.30;;
79646;SDS011;69119;41.718;21.786;2023-06-26T07:52:07;13.45;;;9.68;;
79646;SDS011;69119;41.718;21.786;2023-06-26T07:54:35;11.73;;;7.00;;
79646;SDS011;69119;41.718;21.786;2023-06-26T07:57:02;13.80;;;6.82;;
79646;SDS011;69119;41.718;21.786;2023-06-26T07:59:29;8.82;;;6.45;;
79646;SDS011;69119;41.718;21.786;2023-06-26T08:01:56;10.43;;;6.55;;
79646;SDS011;69119;41.718;21.786;2023-06-26T08:04:23;11.95;;;7.28;;
79646;SDS011;69119;41.718;21.786;2023-06-26T08:06:50;10.93;;;7.35;;
79646;SDS011;69119;41.718;21.786;2023-06-26T08:09:16;12.13;;;8.63;;
79646;SDS011;69119;41.718;21.786;2023-06-26T08:11:43;12.02;;;8.30;;
79646;SDS011;69119;41.718;21.786;2023-06-26T08:14:09;11.32;;;7.70;;
79646;SDS011;69119;41.718;21.786;2023-06-26T08:16:36;8.70;;;6.00;;
79646;SDS011;69119;41.718;21.786;2023-06-26T08:19:03;9.07;;;5.30;;
79646;SDS011;69119;41.718;21.786;2023-06-26T08:21:29;10.18;;;6.63;;
79646;SDS011;69119;41.718;21.786;2023-06-26T08:23:55;9.52;;;6.38;;
79646;SDS011;69119;41.718;21.786;2023-06-26T08:26:21;9.75;;;6.53;;
79646;SDS011;69119;41.718;21.786;2023-06-26T08:28:47;8.98;;;6.00;;
79646;SDS011;69119;41.718;21.786;2023-06-26T08:31:13;9.23;;;6.50;;
79646;SDS011;69119;41.718;21.786;2023-06-26T08:33:39;7.55;;;4.55;;
79646;SDS011;69119;41.718;21.786;2023-06-26T08:36:05;10.85;;;7.03;;
79646;SDS011;69119;41.718;21.786;2023-06-26T08:38:31;9.50;;;6.63;;
79646;SDS011;69119;41.718;21.786;2023-06-26T08:40:58;9.30;;;5.68;;
79646;SDS011;69119;41.718;21.786;2023-06-26T08:43:24;9.18;;;5.35;;
79646;SDS011;69119;41.718;21.786;2023-06-26T08:45:52;12.63;;;7.57;;
79646;SDS011;69119;41.718;21.786;2023-06-26T08:48:18;12.32;;;6.47;;
79646;SDS011;69119;41.718;21.786;2023-06-26T08:50:47;10.00;;;5.63;;
79646;SDS011;69119;41.718;21.786;2023-06-26T08:53:26;10.57;;;7.47;;
79646;SDS011;69119;41.718;21.786;2023-06-26T08:55:55;10.65;;;7.65;;
79646;SDS011;69119;41.718;21.786;2023-06-26T08:58:23;11.45;;;8.68;;
79646;SDS011;69119;41.718;21.786;2023-06-26T09:00:49;9.27;;;5.20;;
79646;SDS011;69119;41.718;21.786;2023-06-26T09:03:15;11.98;;;10.15;;
79646;SDS011;69119;41.718;21.786;2023-06-26T09:05:41;13.73;;;9.95;;
79646;SDS011;69119;41.718;21.786;2023-06-26T09:08:07;10.88;;;9.25;;
79646;SDS011;69119;41.718;21.786;2023-06-26T09:10:34;10.60;;;7.50;;
79646;SDS011;69119;41.718;21.786;2023-06-26T09:13:00;11.25;;;8.63;;
79646;SDS011;69119;41.718;21.786;2023-06-26T09:15:26;11.50;;;8.68;;
79646;SDS011;69119;41.718;21.786;2023-06-26T09:17:56;10.65;;;7.00;;
79646;SDS011;69119;41.718;21.786;2023-06-26T09:20:24;11.25;;;6.93;;
79646;SDS011;69119;41.718;21.786;2023-06-26T09:22:56;12.35;;;7.85;;
79646;SDS011;69119;41.718;21.786;2023-06-26T09:25:22;10.20;;;7.95;;
79646;SDS011;69119;41.718;21.786;2023-06-26T09:27:48;10.57;;;8.80;;
79646;SDS011;69119;41.718;21.786;2023-06-26T09:30:16;11.35;;;7.90;;
79646;SDS011;69119;41.718;21.786;2023-06-26T09:32:43;8.23;;;5.13;;
79646;SDS011;69119;41.718;21.786;2023-06-26T09:35:09;11.15;;;7.50;;
79646;SDS011;69119;41.718;21.786;2023-06-26T09:37:36;13.25;;;10.95;;
79646;SDS011;69119;41.718;21.786;2023-06-26T09:40:02;9.10;;;4.88;;
79646;SDS011;69119;41.718;21.786;2023-06-26T09:42:29;9.00;;;5.95;;
79646;SDS011;69119;41.718;21.786;2023-06-26T09:44:56;9.00;;;4.95;;
79646;SDS011;69119;41.718;21.786;2023-06-26T09:47:22;13.50;;;8.95;;
79646;SDS011;69119;41.718;21.786;2023-06-26T09:49:48;9.30;;;5.85;;
79646;SDS011;69119;41.718;21.786;2023-06-26T09:52:15;9.20;;;6.10;;
79646;SDS011;69119;41.718;21.786;2023-06-26T09:54:44;10.40;;;6.00;;
79646;SDS011;69119;41.718;21.786;2023-06-26T09:57:16;9.90;;;5.22;;
79646;SDS011;69119;41.718;21.786;2023-06-26T09:59:42;11.27;;;7.45;;
79646;SDS011;69119;41.718;21.786;2023-06-26T10:02:11;10.10;;;7.05;;
79646;SDS011;69119;41.718;21.786;2023-06-26T10:04:38;9.32;;;6.20;;
79646;SDS011;69119;41.718;21.786;2023-06-26T10:07:04;11.18;;;6.50;;
79646;SDS011;69119;41.718;21.786;2023-06-26T10:09:31;9.32;;;6.53;;
79646;SDS011;69119;41.718;21.786;2023-06-26T10:12:03;12.52;;;6.03;;
79646;SDS011;69119;41.718;21.786;2023-06-26T10:14:34;8.73;;;5.35;;
79646;SDS011;69119;41.718;21.786;2023-06-26T10:17:01;10.82;;;7.20;;
79646;SDS011;69119;41.718;21.786;2023-06-26T10:19:29;9.88;;;7.15;;
79646;SDS011;69119;41.718;21.786;2023-06-26T10:21:59;10.52;;;6.47;;
79646;SDS011;69119;41.718;21.786;2023-06-26T10:24:26;11.15;;;5.60;;
79646;SDS011;69119;41.718;21.786;2023-06-26T10:26:56;9.57;;;7.90;;
79646;SDS011;69119;41.718;21.786;2023-06-26T10:29:23;9.73;;;7.20;;
79646;SDS011;69119;41.718;21.786;2023-06-26T10:31:51;9.10;;;6.45;;
79646;SDS011;69119;41.718;21.786;2023-06-26T10:34:18;9.60;;;7.25;;
79646;SDS011;69119;41.718;21.786;2023-06-26T10:36:45;8.85;;;7.13;;
79646;SDS011;69119;41.718;21.786;2023-06-26T10:39:13;9.18;;;5.68;;
79646;SDS011;69119;41.718;21.786;2023-06-26T10:41:39;9.90;;;6.90;;
79646;SDS011;69119;41.718;21.786;2023-06-26T10:46:33;7.43;;;4.07;;
79646;SDS011;69119;41.718;21.786;2023-06-26T10:49:00;8.75;;;5.30;;
79646;SDS011;69119;41.718;21.786;2023-06-26T10:51:27;13.27;;;7.57;;
79646;SDS011;69119;41.718;21.786;2023-06-26T10:53:54;9.88;;;6.85;;
79646;SDS011;69119;41.718;21.786;2023-06-26T10:56:20;8.95;;;5.25;;
79646;SDS011;69119;41.718;21.786;2023-06-26T10:58:47;10.00;;;6.40;;
79646;SDS011;69119;41.718;21.786;2023-06-26T11:01:19;8.80;;;5.00;;
79646;SDS011;69119;41.718;21.786;2023-06-26T11:04:05;8.60;;;4.28;;
79646;SDS011;69119;41.718;21.786;2023-06-26T11:06:31;8.55;;;4.95;;
79646;SDS011;69119;41.718;21.786;2023-06-26T11:14:12;9.93;;;4.45;;
79646;SDS011;69119;41.718;21.786;2023-06-26T11:16:38;8.40;;;4.78;;
79646;SDS011;69119;41.718;21.786;2023-06-26T11:19:04;7.80;;;3.60;;
79646;SDS011;69119;41.718;21.786;2023-06-26T11:21:31;6.85;;;3.33;;
79646;SDS011;69119;41.718;21.786;2023-06-26T11:23:58;10.52;;;5.90;;
79646;SDS011;69119;41.718;21.786;2023-06-26T11:26:25;12.65;;;5.88;;
79646;SDS011;69119;41.718;21.786;2023-06-26T11:28:54;8.18;;;5.53;;
79646;SDS011;69119;41.718;21.786;2023-06-26T11:31:27;8.00;;;4.22;;
79646;SDS011;69119;41.718;21.786;2023-06-26T11:33:55;8.75;;;4.18;;
79646;SDS011;69119;41.718;21.786;2023-06-26T11:36:24;8.50;;;5.40;;
79646;SDS011;69119;41.718;21.786;2023-06-26T11:38:54;10.93;;;4.05;;
79646;SDS011;69119;41.718;21.786;2023-06-26T11:41:21;8.65;;;5.00;;
79646;SDS011;69119;41.718;21.786;2023-06-26T11:43:47;7.43;;;4.88;;
79646;SDS011;69119;41.718;21.786;2023-06-26T11:46:15;7.68;;;4.25;;
79646;SDS011;69119;41.718;21.786;2023-06-26T11:48:42;8.48;;;4.60;;
79646;SDS011;69119;41.718;21.786;2023-06-26T11:51:08;9.43;;;4.75;;
79646;SDS011;69119;41.718;21.786;2023-06-26T11:53:39;7.40;;;2.85;;
79646;SDS011;69119;41.718;21.786;2023-06-26T11:56:12;9.05;;;4.38;;
79646;SDS011;69119;41.718;21.786;2023-06-26T12:01:25;8.88;;;5.38;;
79646;SDS011;69119;41.718;21.786;2023-06-26T12:03:54;9.50;;;6.00;;
79646;SDS011;69119;41.718;21.786;2023-06-26T12:06:20;8.77;;;6.30;;
79646;SDS011;69119;41.718;21.786;2023-06-26T12:08:46;7.30;;;3.38;;
79646;SDS011;69119;41.718;21.786;2023-06-26T12:11:12;8.50;;;5.50;;
79646;SDS011;69119;41.718;21.786;2023-06-26T12:13:39;10.23;;;6.95;;
79646;SDS011;69119;41.718;21.786;2023-06-26T12:16:05;8.40;;;5.43;;
79646;SDS011;69119;41.718;21.786;2023-06-26T12:18:34;8.18;;;3.58;;
79646;SDS011;69119;41.718;21.786;2023-06-26T12:21:01;8.05;;;3.78;;
79646;SDS011;69119;41.718;21.786;2023-06-26T12:23:33;7.55;;;4.07;;
79646;SDS011;69119;41.718;21.786;2023-06-26T12:26:19;8.15;;;4.65;;
79646;SDS011;69119;41.718;21.786;2023-06-26T12:31:14;8.90;;;4.82;;
79646;SDS011;69119;41.718;21.786;2023-06-26T12:33:42;6.82;;;3.60;;
79646;SDS011;69119;41.718;21.786;2023-06-26T12:36:12;9.48;;;5.15;;
79646;SDS011;69119;41.718;21.786;2023-06-26T12:38:38;6.55;;;3.75;;
79646;SDS011;69119;41.718;21.786;2023-06-26T12:41:04;13.30;;;6.03;;
79646;SDS011;69119;41.718;21.786;2023-06-26T12:43:30;8.93;;;4.68;;
79646;SDS011;69119;41.718;21.786;2023-06-26T12:45:56;8.73;;;4.40;;
79646;SDS011;69119;41.718;21.786;2023-06-26T12:48:38;9.93;;;5.43;;
79646;SDS011;69119;41.718;21.786;2023-06-26T12:51:12;7.28;;;3.85;;
79646;SDS011;69119;41.718;21.786;2023-06-26T12:53:38;7.60;;;4.68;;
79646;SDS011;69119;41.718;21.786;2023-06-26T12:56:05;8.02;;;4.60;;
79646;SDS011;69119;41.718;21.786;2023-06-26T12:58:31;8.35;;;4.47;;
79646;SDS011;69119;41.718;21.786;2023-06-26T13:00:57;8.25;;;2.92;;
79646;SDS011;69119;41.718;21.786;2023-06-26T13:03:23;6.63;;;3.35;;
79646;SDS011;69119;41.718;21.786;2023-06-26T13:05:50;6.93;;;3.13;;
79646;SDS011;69119;41.718;21.786;2023-06-26T13:08:16;9.73;;;6.22;;
79646;SDS011;69119;41.718;21.786;2023-06-26T13:10:43;7.70;;;3.42;;
79646;SDS011;69119;41.718;21.786;2023-06-26T13:13:10;9.38;;;4.20;;
79646;SDS011;69119;41.718;21.786;2023-06-26T13:15:36;7.15;;;4.07;;
79646;SDS011;69119;41.718;21.786;2023-06-26T13:18:02;7.53;;;3.28;;
79646;SDS011;69119;41.718;21.786;2023-06-26T13:20:28;9.15;;;4.80;;
79646;SDS011;69119;41.718;21.786;2023-06-26T13:22:55;7.47;;;4.05;;
79646;SDS011;69119;41.718;21.786;2023-06-26T13:25:21;7.35;;;4.30;;
79646;SDS011;69119;41.718;21.786;2023-06-26T13:27:47;7.57;;;3.40;;
79646;SDS011;69119;41.718;21.786;2023-06-26T13:30:14;6.72;;;3.55;;
79646;SDS011;69119;41.718;21.786;2023-06-26T13:32:41;6.20;;;2.65;;
79646;SDS011;69119;41.718;21.786;2023-06-26T13:35:07;6.38;;;2.55;;
79646;SDS011;69119;41.718;21.786;2023-06-26T13:37:35;6.80;;;3.25;;
79646;SDS011;69119;41.718;21.786;2023-06-26T13:40:02;6.97;;;4.15;;
79646;SDS011;69119;41.718;21.786;2023-06-26T13:42:28;7.10;;;3.15;;
79646;SDS011;69119;41.718;21.786;2023-06-26T13:44:55;6.53;;;3.60;;
79646;SDS011;69119;41.718;21.786;2023-06-26T13:47:21;6.72;;;3.03;;
79646;SDS011;69119;41.718;21.786;2023-06-26T13:49:47;6.07;;;2.60;;
79646;SDS011;69119;41.718;21.786;2023-06-26T13:52:13;6.72;;;3.15;;
79646;SDS011;69119;41.718;21.786;2023-06-26T13:54:39;8.65;;;2.88;;
79646;SDS011;69119;41.718;21.786;2023-06-26T13:57:06;6.78;;;3.33;;
79646;SDS011;69119;41.718;21.786;2023-06-26T13:59:33;6.80;;;3.45;;
79646;SDS011;69119;41.718;21.786;2023-06-26T14:01:59;7.32;;;3.88;;
79646;SDS011;69119;41.718;21.786;2023-06-26T14:04:25;7.38;;;3.25;;
79646;SDS011;69119;41.718;21.786;2023-06-26T14:06:52;6.63;;;2.72;;
79646;SDS011;69119;41.718;21.786;2023-06-26T14:09:18;8.15;;;3.17;;
79646;SDS011;69119;41.718;21.786;2023-06-26T14:11:44;7.45;;;3.35;;
79646;SDS011;69119;41.718;21.786;2023-06-26T14:14:10;6.60;;;3.72;;
79646;SDS011;69119;41.718;21.786;2023-06-26T14:16:36;7.10;;;3.47;;
79646;SDS011;69119;41.718;21.786;2023-06-26T14:19:05;6.15;;;2.55;;
79646;SDS011;69119;41.718;21.786;2023-06-26T14:21:31;7.45;;;3.67;;
79646;SDS011;69119;41.718;21.786;2023-06-26T14:23:58;7.18;;;3.28;;
79646;SDS011;69119;41.718;21.786;2023-06-26T14:26:24;6.32;;;2.53;;
79646;SDS011;69119;41.718;21.786;2023-06-26T14:28:51;8.48;;;3.95;;
79646;SDS011;69119;41.718;21.786;2023-06-26T14:31:17;6.05;;;2.35;;
79646;SDS011;69119;41.718;21.786;2023-06-26T14:33:43;6.90;;;3.38;;
79646;SDS011;69119;41.718;21.786;2023-06-26T14:36:09;7.65;;;3.90;;
79646;SDS011;69119;41.718;21.786;2023-06-26T14:38:35;5.60;;;1.77;;
79646;SDS011;69119;41.718;21.786;2023-06-26T14:41:01;7.88;;;3.30;;
79646;SDS011;69119;41.718;21.786;2023-06-26T14:43:27;8.00;;;3.42;;
79646;SDS011;69119;41.718;21.786;2023-06-26T14:45:53;7.70;;;3.88;;
79646;SDS011;69119;41.718;21.786;2023-06-26T14:48:19;7.32;;;3.72;;
79646;SDS011;69119;41.718;21.786;2023-06-26T14:50:45;6.75;;;3.33;;
79646;SDS011;69119;41.718;21.786;2023-06-26T14:53:11;7.55;;;3.10;;
79646;SDS011;69119;41.718;21.786;2023-06-26T14:55:37;7.25;;;3.70;;
79646;SDS011;69119;41.718;21.786;2023-06-26T15:00:29;6.95;;;3.05;;
79646;SDS011;69119;41.718;21.786;2023-06-26T15:02:55;6.18;;;2.78;;
79646;SDS011;69119;41.718;21.786;2023-06-26T15:05:23;7.88;;;3.63;;